EYKA/KUN METAR and TAF weather

Enter ICAO airport designator
Station Type Date Time Source
EYKA METAR 2021/05/11 21:50 UTC NOAA

EYKA 112150Z AUTO 12007KT 9999 NCD 13/03 Q1016


Station Type Date Time Source
EYKA Decoded METAR 2021/05/11 21:50 UTC NOAA

Kaunas, Lithuania (EYKA) 54-54N 023-55-12E
May 11, 2021 - 05:50 PM EDT / 2021.05.11 2150 UTC
Wind: from the ESE (120 degrees) at 8 MPH (7 KT):0
Visibility: greater than 7 mile(s):0
Temperature: 55 F (13 C)
Dew Point: 37 F (3 C)
Relative Humidity: 50%
Pressure (altimeter): 30.00 in. Hg (1016 hPa)
ob: EYKA 112150Z AUTO 12007KT 9999 NCD 13/03 Q1016
cycle: 22

Station Type Date Time Source
EYKA TAF 2021/05/11 18:03 UTC NOAA

TAF EYKA 111700Z 1118/1218 13007KT CAVOK
TEMPO 1209/1215 10017KT

Example: see airport list